createdAt,value
2019-05-02T00:02:23.940Z,8.13
2019-05-02T00:04:55.894Z,6.90
2019-05-02T00:07:23.158Z,7.03
2019-05-02T00:09:52.771Z,8.00
2019-05-02T00:12:23.149Z,8.37
2019-05-02T00:14:56.464Z,8.90
2019-05-02T00:17:27.498Z,7.20
2019-05-02T00:19:57.108Z,7.23
2019-05-02T00:22:26.660Z,8.73
2019-05-02T00:24:56.212Z,7.97
2019-05-02T00:27:25.977Z,10.40
2019-05-02T00:29:58.621Z,7.93
2019-05-02T00:32:26.943Z,7.40
2019-05-02T00:34:56.646Z,8.07
2019-05-02T00:37:26.736Z,7.07
2019-05-02T00:39:56.721Z,8.50
2019-05-02T00:42:26.346Z,8.67
2019-05-02T00:44:57.026Z,7.60
2019-05-02T00:47:28.155Z,8.20
2019-05-02T00:49:57.811Z,8.30
2019-05-02T00:52:27.365Z,9.73
2019-05-02T00:54:58.705Z,7.83
2019-05-02T00:57:27.904Z,10.93
2019-05-02T00:59:57.319Z,9.23
2019-05-02T01:02:28.443Z,10.77
2019-05-02T01:04:59.280Z,10.00
2019-05-02T01:07:29.189Z,13.17
2019-05-02T01:09:58.704Z,9.53
2019-05-02T01:12:28.156Z,9.40
2019-05-02T01:14:57.570Z,9.43
2019-05-02T01:17:30.964Z,10.73
2019-05-02T01:19:58.371Z,11.47
2019-05-02T01:22:29.131Z,10.53
2019-05-02T01:24:58.695Z,11.17
2019-05-02T01:27:42.607Z,13.63
2019-05-02T01:30:37.186Z,16.90
2019-05-02T01:33:08.794Z,13.43
2019-05-02T01:35:45.899Z,12.67
2019-05-02T01:38:31.135Z,12.90
2019-05-02T01:40:57.358Z,17.47
2019-05-02T01:43:31.682Z,15.60
2019-05-02T01:46:01.517Z,14.47
2019-05-02T01:48:31.161Z,14.70
2019-05-02T01:51:04.564Z,17.33
2019-05-02T01:53:34.337Z,19.17
2019-05-02T01:56:03.133Z,14.67
2019-05-02T01:58:32.630Z,16.77
2019-05-02T02:01:02.130Z,16.20
2019-05-02T02:03:31.626Z,17.90
2019-05-02T02:06:02.821Z,17.30
2019-05-02T02:08:33.945Z,14.90
2019-05-02T02:11:03.857Z,14.23
2019-05-02T02:13:36.425Z,17.57
2019-05-02T02:16:05.918Z,15.70
2019-05-02T02:18:40.277Z,18.33
2019-05-02T02:21:14.443Z,20.10
2019-05-02T02:23:49.668Z,20.90
2019-05-02T02:26:18.521Z,16.97
2019-05-02T02:28:48.183Z,17.10
2019-05-02T02:31:22.453Z,23.17
2019-05-02T02:33:52.010Z,14.50
2019-05-02T02:36:31.351Z,18.30
2019-05-02T02:38:52.927Z,16.03
2019-05-02T02:41:22.494Z,14.63
2019-05-02T02:44:13.433Z,16.43
2019-05-02T02:46:47.489Z,16.43
2019-05-02T02:49:21.615Z,14.93
2019-05-02T02:51:48.405Z,15.83
2019-05-02T02:54:18.003Z,18.60
2019-05-02T02:56:47.554Z,14.90
2019-05-02T02:59:19.658Z,14.40
2019-05-02T03:01:48.373Z,16.53
2019-05-02T03:04:17.870Z,15.03
2019-05-02T03:06:47.465Z,15.47
2019-05-02T03:09:20.149Z,16.50
2019-05-02T03:12:06.141Z,18.13
2019-05-02T03:14:40.899Z,15.00
2019-05-02T03:17:09.897Z,15.97
2019-05-02T03:19:39.499Z,17.00
2019-05-02T03:22:09.163Z,17.43
2019-05-02T03:24:43.908Z,14.90
2019-05-02T03:27:10.017Z,14.40
2019-05-02T03:29:43.808Z,15.50
2019-05-02T03:32:16.106Z,15.17
2019-05-02T03:34:48.364Z,14.73
2019-05-02T03:37:14.259Z,14.40
2019-05-02T03:39:49.414Z,16.03
2019-05-02T03:42:15.153Z,16.53
2019-05-02T03:44:54.589Z,15.10
2019-05-02T03:47:15.958Z,15.73
2019-05-02T03:49:48.806Z,15.70
2019-05-02T03:52:17.029Z,13.33
2019-05-02T03:54:50.571Z,13.60
2019-05-02T03:57:17.967Z,15.30
2019-05-02T03:59:47.403Z,14.53
2019-05-02T04:02:20.504Z,13.43
2019-05-02T04:04:54.134Z,18.27
2019-05-02T04:07:20.930Z,15.07
2019-05-02T04:09:51.340Z,19.57
2019-05-02T04:12:22.092Z,14.77
2019-05-02T04:14:55.433Z,16.07
2019-05-02T04:17:28.717Z,15.97
2019-05-02T04:19:55.940Z,15.40
2019-05-02T04:22:26.111Z,13.73
2019-05-02T04:24:56.789Z,16.47
2019-05-02T04:27:34.223Z,16.47
2019-05-02T04:30:09.878Z,16.93
2019-05-02T04:32:32.132Z,14.70
2019-05-02T04:35:01.554Z,16.30
2019-05-02T04:37:34.191Z,14.07
2019-05-02T04:40:03.475Z,14.37
2019-05-02T04:42:33.980Z,13.77
2019-05-02T04:45:20.675Z,15.00
2019-05-02T04:47:35.690Z,14.13
2019-05-02T04:50:17.625Z,14.83
2019-05-02T04:52:47.377Z,15.50
2019-05-02T04:55:26.154Z,15.47
2019-05-02T04:57:50.696Z,19.47
2019-05-02T05:00:21.473Z,16.37
2019-05-02T05:02:53.233Z,16.27
2019-05-02T05:05:27.395Z,15.50
2019-05-02T05:07:58.620Z,14.70
2019-05-02T05:10:28.053Z,14.13
2019-05-02T05:12:57.742Z,16.27
2019-05-02T05:15:40.251Z,16.47
2019-05-02T05:17:58.713Z,16.97
2019-05-02T05:20:28.256Z,14.90
2019-05-02T05:22:58.168Z,16.67
2019-05-02T05:25:32.679Z,16.97
2019-05-02T05:28:05.832Z,20.03
2019-05-02T05:30:37.629Z,14.33
2019-05-02T05:33:04.925Z,16.80
2019-05-02T05:35:34.356Z,16.23
2019-05-02T05:38:07.627Z,15.60
2019-05-02T05:40:37.636Z,15.17
2019-05-02T05:43:13.578Z,13.57
2019-05-02T05:45:50.668Z,13.40
2019-05-02T05:48:09.983Z,13.07
2019-05-02T05:50:41.384Z,12.17
2019-05-02T05:53:12.487Z,16.50
2019-05-02T05:55:42.283Z,12.37
2019-05-02T05:58:15.298Z,13.87
2019-05-02T06:00:45.951Z,13.73
2019-05-02T06:03:17.902Z,11.77
2019-05-02T06:05:47.980Z,17.33
2019-05-02T06:08:18.373Z,12.53
2019-05-02T06:10:48.849Z,11.70
2019-05-02T06:13:18.441Z,12.23
2019-05-02T06:16:02.642Z,18.37
2019-05-02T06:18:28.886Z,10.90
2019-05-02T06:21:03.177Z,12.17
2019-05-02T06:23:31.044Z,12.87
2019-05-02T06:26:01.249Z,15.37
2019-05-02T06:28:30.878Z,10.37
2019-05-02T06:31:02.105Z,14.77
2019-05-02T06:33:32.409Z,13.17
2019-05-02T06:36:02.596Z,13.47
2019-05-02T06:38:32.233Z,11.53
2019-05-02T06:41:02.021Z,13.23
2019-05-02T06:43:31.660Z,11.53
2019-05-02T06:46:01.293Z,9.30
2019-05-02T06:48:30.919Z,10.17
2019-05-02T06:51:04.857Z,12.17
2019-05-02T06:53:46.989Z,11.13
2019-05-02T06:56:16.794Z,13.27
2019-05-02T06:58:48.038Z,10.47
2019-05-02T07:01:21.253Z,11.20
2019-05-02T07:03:49.276Z,9.57
2019-05-02T07:06:19.153Z,10.67
2019-05-02T07:08:48.812Z,12.63
2019-05-02T07:11:18.383Z,10.97
2019-05-02T07:13:47.942Z,12.10
2019-05-02T07:16:36.883Z,11.07
2019-05-02T07:19:11.944Z,11.13
2019-05-02T07:21:42.085Z,11.43
2019-05-02T07:24:11.714Z,10.57
2019-05-02T07:26:41.208Z,9.77
2019-05-02T07:29:10.656Z,10.53
2019-05-02T07:31:43.042Z,11.13
2019-05-02T07:34:12.880Z,11.67
2019-05-02T07:36:42.929Z,12.60
2019-05-02T07:39:12.517Z,12.67
2019-05-02T07:41:42.096Z,11.23
2019-05-02T07:44:12.664Z,11.23
2019-05-02T07:46:51.581Z,14.33
2019-05-02T07:49:14.573Z,12.23
2019-05-02T07:51:44.963Z,13.10
2019-05-02T07:54:14.587Z,10.83
2019-05-02T07:56:44.181Z,11.17
2019-05-02T07:59:13.748Z,12.63
2019-05-02T08:01:44.827Z,12.60
2019-05-02T08:04:14.634Z,17.07
2019-05-02T08:06:44.564Z,10.83
2019-05-02T08:09:15.506Z,13.30
2019-05-02T08:11:45.237Z,11.10
2019-05-02T08:14:14.730Z,11.47
2019-05-02T08:16:44.142Z,8.93
2019-05-02T08:19:13.707Z,13.57
2019-05-02T08:21:43.274Z,13.37
2019-05-02T08:24:12.769Z,11.93
2019-05-02T08:27:03.660Z,11.13
2019-05-02T08:29:33.625Z,12.50
2019-05-02T08:32:03.283Z,14.47
2019-05-02T08:34:33.319Z,13.27
2019-05-02T08:37:04.911Z,10.30
2019-05-02T08:39:35.252Z,14.03
2019-05-02T08:42:05.892Z,10.73
2019-05-02T08:44:35.443Z,8.40
2019-05-02T08:47:18.131Z,12.80
2019-05-02T08:49:36.365Z,14.23
2019-05-02T08:52:05.934Z,11.97
2019-05-02T08:54:35.429Z,12.50
2019-05-02T08:57:05.070Z,12.13
2019-05-02T08:59:34.570Z,10.97
2019-05-02T09:02:04.235Z,10.90
2019-05-02T09:04:33.790Z,15.03
2019-05-02T09:07:03.365Z,12.73
2019-05-02T09:09:32.927Z,12.03
2019-05-02T09:12:11.979Z,15.13
2019-05-02T09:14:34.308Z,10.57
2019-05-02T09:17:08.836Z,10.30
2019-05-02T09:19:35.177Z,11.67
2019-05-02T09:22:07.491Z,11.07
2019-05-02T09:24:36.270Z,12.47
2019-05-02T09:27:06.007Z,11.63
2019-05-02T09:29:37.290Z,10.97
2019-05-02T09:32:06.980Z,11.30
2019-05-02T09:34:36.537Z,8.07
2019-05-02T09:37:06.194Z,11.03
2019-05-02T09:39:36.596Z,13.00
2019-05-02T09:42:10.840Z,9.30
2019-05-02T09:44:39.403Z,9.67
2019-05-02T09:47:12.734Z,12.03
2019-05-02T09:49:48.927Z,10.70
2019-05-02T09:52:13.468Z,9.77
2019-05-02T09:54:46.072Z,10.27
2019-05-02T09:57:14.112Z,10.23
2019-05-02T09:59:50.343Z,8.67
2019-05-02T10:02:15.076Z,13.77
2019-05-02T10:04:44.628Z,11.23
2019-05-02T10:07:15.495Z,8.47
2019-05-02T10:09:45.468Z,12.03
2019-05-02T10:12:14.971Z,8.47
2019-05-02T10:14:44.595Z,9.90
2019-05-02T10:17:14.215Z,9.10
2019-05-02T10:19:49.222Z,7.03
2019-05-02T10:22:15.238Z,11.53
2019-05-02T10:24:45.127Z,9.10
2019-05-02T10:27:14.688Z,6.47
2019-05-02T10:29:44.251Z,8.17
2019-05-02T10:32:16.637Z,9.03
2019-05-02T10:34:47.588Z,7.47
2019-05-02T10:37:16.368Z,14.37
2019-05-02T10:39:46.030Z,7.60
2019-05-02T10:42:15.531Z,11.73
2019-05-02T10:44:45.167Z,8.07
2019-05-02T10:47:14.887Z,8.43
2019-05-02T10:49:57.965Z,7.70
2019-05-02T10:52:29.899Z,7.07
2019-05-02T10:54:58.914Z,7.67
2019-05-02T10:57:28.540Z,8.70
2019-05-02T10:59:59.172Z,7.53
2019-05-02T11:02:33.469Z,8.53
2019-05-02T11:05:07.424Z,6.70
2019-05-02T11:07:36.975Z,5.30
2019-05-02T11:10:07.972Z,9.17
2019-05-02T11:12:44.470Z,6.57
2019-05-02T11:15:12.755Z,9.33
2019-05-02T11:17:43.971Z,14.87
2019-05-02T11:20:13.882Z,10.83
2019-05-02T11:22:43.619Z,8.93
2019-05-02T11:25:13.385Z,9.53
2019-05-02T11:27:48.661Z,7.07
2019-05-02T11:30:22.279Z,8.90
2019-05-02T11:32:51.629Z,5.17
2019-05-02T11:35:22.402Z,8.07
2019-05-02T11:37:52.063Z,6.53
2019-05-02T11:40:22.745Z,6.53
2019-05-02T11:42:52.702Z,9.23
2019-05-02T11:45:22.744Z,4.80
2019-05-02T11:47:55.800Z,5.30
2019-05-02T11:50:26.725Z,6.27
2019-05-02T11:52:54.996Z,6.73
2019-05-02T11:55:28.872Z,6.70
2019-05-02T11:57:55.702Z,7.63
2019-05-02T12:00:25.380Z,7.57
2019-05-02T12:03:12.753Z,7.47
2019-05-02T12:05:44.258Z,5.90
2019-05-02T12:08:13.866Z,8.00
2019-05-02T12:11:03.386Z,8.97
2019-05-02T12:13:23.588Z,9.00
2019-05-02T12:15:53.152Z,5.63
2019-05-02T12:18:23.362Z,9.03
2019-05-02T12:20:53.491Z,8.17
2019-05-02T12:23:23.110Z,10.53
2019-05-02T12:25:52.658Z,6.10
2019-05-02T12:28:23.009Z,7.87
2019-05-02T12:30:52.765Z,11.30
2019-05-02T12:33:23.941Z,12.53
2019-05-02T12:35:53.501Z,14.80
2019-05-02T12:38:23.293Z,8.30
2019-05-02T12:40:57.734Z,10.70
2019-05-02T12:43:28.798Z,8.13
2019-05-02T12:46:02.090Z,7.67
2019-05-02T12:48:32.785Z,6.20
2019-05-02T12:51:02.900Z,6.97
2019-05-02T12:53:32.706Z,7.30
2019-05-02T12:56:02.357Z,7.63
2019-05-02T12:58:32.635Z,10.03
2019-05-02T13:01:02.912Z,8.40
2019-05-02T13:03:43.725Z,5.77
2019-05-02T13:06:13.469Z,7.43
2019-05-02T13:08:48.901Z,9.23
2019-05-02T13:11:36.991Z,5.37
2019-05-02T13:14:31.787Z,9.37
2019-05-02T13:17:01.460Z,9.53
2019-05-02T13:19:38.098Z,8.30
2019-05-02T13:22:03.401Z,10.40
2019-05-02T13:24:42.343Z,6.87
2019-05-02T13:27:17.161Z,8.10
2019-05-02T13:29:49.061Z,7.30
2019-05-02T13:32:21.743Z,7.03
2019-05-02T13:35:08.812Z,7.93
2019-05-02T13:37:42.420Z,7.47
2019-05-02T13:40:37.747Z,6.73
2019-05-02T13:43:13.212Z,8.50
2019-05-02T13:45:52.667Z,8.27
2019-05-02T13:56:57.130Z,6.97
2019-05-02T13:59:26.525Z,5.77
2019-05-02T14:11:24.956Z,8.60
2019-05-02T14:13:12.453Z,6.10
2019-05-02T14:15:42.118Z,6.60
2019-05-02T14:18:12.519Z,7.90
2019-05-02T14:20:42.844Z,7.63
2019-05-02T14:23:12.761Z,9.70
2019-05-02T14:25:42.676Z,7.97
2019-05-02T14:28:12.933Z,7.87
2019-05-02T14:30:46.045Z,8.57
2019-05-02T14:33:15.553Z,8.07
2019-05-02T14:35:45.170Z,9.43
2019-05-02T14:38:15.461Z,8.13
2019-05-02T14:40:48.293Z,8.13
2019-05-02T14:43:38.132Z,7.60
2019-05-02T14:46:06.897Z,8.50
2019-05-02T14:48:41.725Z,8.10
2019-05-02T14:51:11.848Z,13.97
2019-05-02T14:53:43.013Z,7.17
2019-05-02T14:56:26.338Z,10.70
2019-05-02T14:58:55.895Z,8.40
2019-05-02T15:01:26.259Z,14.93
2019-05-02T15:03:58.297Z,8.73
2019-05-02T15:06:27.349Z,8.77
2019-05-02T15:08:56.949Z,12.93
2019-05-02T15:11:30.940Z,6.53
2019-05-02T15:13:57.677Z,12.43
2019-05-02T15:16:39.522Z,9.40
2019-05-02T15:18:58.388Z,9.53
2019-05-02T15:21:29.779Z,8.00
2019-05-02T15:23:59.380Z,30.37
2019-05-02T15:26:31.285Z,12.10
2019-05-02T15:29:01.795Z,12.90
2019-05-02T15:31:34.350Z,6.27
2019-05-02T15:34:08.353Z,8.73
2019-05-02T15:36:44.078Z,11.83
2019-05-02T15:41:44.913Z,7.97
2019-05-02T15:44:13.381Z,7.73
2019-05-02T15:46:43.050Z,12.43
2019-05-02T15:49:12.532Z,9.83
2019-05-02T15:51:45.034Z,8.17
2019-05-02T15:54:13.440Z,9.67
2019-05-02T15:57:00.447Z,10.57
2019-05-02T15:59:43.976Z,10.90
2019-05-02T16:02:08.382Z,8.60
2019-05-02T16:04:41.971Z,7.53
2019-05-02T16:07:12.687Z,7.30
2019-05-02T16:09:42.320Z,9.43
2019-05-02T16:12:12.345Z,13.07
2019-05-02T16:14:43.343Z,18.50
2019-05-02T16:17:17.633Z,9.17
2019-05-02T16:19:45.864Z,14.37
2019-05-02T16:22:17.171Z,9.43
2019-05-02T16:24:49.009Z,7.03
2019-05-02T16:27:21.930Z,16.63
2019-05-02T16:29:50.544Z,10.43
2019-05-02T16:32:22.100Z,8.73
2019-05-02T16:35:12.285Z,7.67
2019-05-02T16:37:36.658Z,8.37
2019-05-02T16:43:09.885Z,7.23
2019-05-02T16:45:41.671Z,7.80
2019-05-02T16:48:12.477Z,9.57
2019-05-02T16:50:44.821Z,6.60
2019-05-02T16:53:17.151Z,9.90
2019-05-02T16:55:45.226Z,9.03
2019-05-02T16:58:14.652Z,14.07
2019-05-02T17:00:45.521Z,8.43
2019-05-02T17:03:17.423Z,8.13
2019-05-02T17:05:49.448Z,9.47
2019-05-02T17:08:20.673Z,8.73
2019-05-02T17:10:56.737Z,10.73
2019-05-02T17:13:27.411Z,8.47
2019-05-02T17:15:55.373Z,10.77
2019-05-02T17:18:25.081Z,12.93
2019-05-02T17:20:56.848Z,15.67
2019-05-02T17:23:25.803Z,10.83
2019-05-02T17:25:55.218Z,9.67
2019-05-02T17:28:24.777Z,9.97
2019-05-02T17:30:54.328Z,19.07
2019-05-02T17:33:23.900Z,24.37
2019-05-02T17:35:54.379Z,33.27
2019-05-02T17:38:29.008Z,52.47
2019-05-02T17:41:04.905Z,41.93
2019-05-02T17:43:32.896Z,40.80
2019-05-02T17:46:04.280Z,39.10
2019-05-02T17:48:36.679Z,30.03
2019-05-02T17:51:17.727Z,28.70
2019-05-02T17:53:49.734Z,16.03
2019-05-02T17:56:20.598Z,22.17
2019-05-02T17:58:54.213Z,29.93
2019-05-02T18:01:26.330Z,17.03
2019-05-02T18:03:55.710Z,39.57
2019-05-02T18:06:32.976Z,24.40
2019-05-02T18:08:56.573Z,14.47
2019-05-02T18:11:29.603Z,14.07
2019-05-02T18:13:57.615Z,9.60
2019-05-02T18:16:27.278Z,18.17
2019-05-02T18:18:56.932Z,28.37
2019-05-02T18:21:28.702Z,21.87
2019-05-02T18:24:02.453Z,13.07
2019-05-02T18:26:31.726Z,9.87
2019-05-02T18:29:02.783Z,10.37
2019-05-02T18:31:34.802Z,11.77
2019-05-02T18:34:03.816Z,13.43
2019-05-02T18:36:37.134Z,18.23
2019-05-02T18:39:08.896Z,23.93
2019-05-02T18:41:44.761Z,18.47
2019-05-02T18:44:11.869Z,13.70
2019-05-02T18:46:42.882Z,11.67
2019-05-02T18:49:17.010Z,13.63
2019-05-02T18:51:48.287Z,12.23
2019-05-02T18:54:15.358Z,9.60
2019-05-02T18:56:50.261Z,11.03
2019-05-02T18:59:19.906Z,10.27
2019-05-02T19:01:52.703Z,11.20
2019-05-02T19:04:22.123Z,12.73
2019-05-02T19:06:52.487Z,10.43
2019-05-02T19:09:26.434Z,23.17
2019-05-02T19:12:04.806Z,18.00
2019-05-02T19:14:26.631Z,15.40
2019-05-02T19:16:58.129Z,11.60
2019-05-02T19:19:32.315Z,14.83
2019-05-02T19:21:58.623Z,16.90
2019-05-02T19:24:32.908Z,16.73
2019-05-02T19:26:59.690Z,18.73
2019-05-02T19:29:31.779Z,18.00
2019-05-02T19:32:01.307Z,13.37
2019-05-02T19:34:32.383Z,12.17
2019-05-02T19:37:02.859Z,28.13
2019-05-02T19:39:34.013Z,13.03
2019-05-02T19:42:03.657Z,34.60
2019-05-02T19:44:34.135Z,33.27
2019-05-02T19:47:08.252Z,47.87
2019-05-02T19:49:35.448Z,23.03
2019-05-02T19:52:05.407Z,12.47
2019-05-02T19:54:39.319Z,11.83
2019-05-02T19:57:07.471Z,9.63
2019-05-02T19:59:36.979Z,8.47
2019-05-02T20:02:06.625Z,9.80
2019-05-02T20:04:37.592Z,11.17
2019-05-02T20:07:07.824Z,10.83
2019-05-02T20:09:38.151Z,15.63
2019-05-02T20:12:11.651Z,13.17
2019-05-02T20:14:47.342Z,13.67
2019-05-02T20:17:20.021Z,12.57
2019-05-02T20:19:57.671Z,8.33
2019-05-02T20:22:27.293Z,7.70
2019-05-02T20:25:00.381Z,10.07
2019-05-02T20:27:28.862Z,11.13
2019-05-02T20:30:00.297Z,11.13
2019-05-02T20:32:32.262Z,10.60
2019-05-02T20:35:02.268Z,9.20
2019-05-02T20:37:32.537Z,9.07
2019-05-02T20:40:03.556Z,9.87
2019-05-02T20:42:33.198Z,8.60
2019-05-02T20:45:02.872Z,8.30
2019-05-02T20:47:33.077Z,14.23
2019-05-02T20:50:04.426Z,10.60
2019-05-02T20:52:35.667Z,10.33
2019-05-02T20:55:06.805Z,11.97
2019-05-02T20:57:36.409Z,8.17
2019-05-02T21:00:09.108Z,7.77
2019-05-02T21:02:40.137Z,10.53
2019-05-02T21:05:11.849Z,8.77
2019-05-02T21:07:43.249Z,10.00
2019-05-02T21:10:14.685Z,7.40
2019-05-02T21:12:44.315Z,17.53
2019-05-02T21:15:13.985Z,10.43
2019-05-02T21:17:43.729Z,8.37
2019-05-02T21:20:13.367Z,8.83
2019-05-02T21:22:42.853Z,9.17
2019-05-02T21:25:13.849Z,12.43
2019-05-02T21:27:44.913Z,8.27
2019-05-02T21:30:17.044Z,11.17
2019-05-02T21:32:46.692Z,11.90
2019-05-02T21:35:16.206Z,10.67
2019-05-02T21:37:45.735Z,10.23
2019-05-02T21:40:15.498Z,8.53
2019-05-02T21:42:44.995Z,7.57
2019-05-02T21:45:15.127Z,9.33
2019-05-02T21:47:44.680Z,9.43
2019-05-02T21:50:25.025Z,8.30
2019-05-02T21:52:56.228Z,10.97
2019-05-02T21:55:27.687Z,9.30
2019-05-02T21:57:57.514Z,7.77
2019-05-02T22:00:45.897Z,8.60
2019-05-02T22:03:16.196Z,8.53
2019-05-02T22:05:47.221Z,7.30
2019-05-02T22:08:16.884Z,11.10
2019-05-02T22:10:46.540Z,9.57
2019-05-02T22:13:16.023Z,8.80
2019-05-02T22:15:45.584Z,8.13
2019-05-02T22:18:15.214Z,8.10
2019-05-02T22:20:44.703Z,11.37
2019-05-02T22:23:14.123Z,12.07
2019-05-02T22:25:43.626Z,8.47
2019-05-02T22:28:14.109Z,10.47
2019-05-02T22:30:43.682Z,9.67
2019-05-02T22:33:13.306Z,10.83
2019-05-02T22:35:43.372Z,9.83
2019-05-02T22:38:14.701Z,7.70
2019-05-02T22:40:45.755Z,11.20
2019-05-02T22:43:15.213Z,10.40
2019-05-02T22:45:44.783Z,10.03
2019-05-02T22:48:14.367Z,9.47
2019-05-02T22:50:43.859Z,10.67
2019-05-02T22:53:14.017Z,9.47
2019-05-02T22:55:43.811Z,10.17
2019-05-02T22:58:14.644Z,9.47
2019-05-02T23:00:44.173Z,8.37
2019-05-02T23:03:13.728Z,8.03
2019-05-02T23:05:43.220Z,14.53
2019-05-02T23:08:12.915Z,8.80
2019-05-02T23:10:43.435Z,7.93
2019-05-02T23:13:13.054Z,9.87
2019-05-02T23:15:42.762Z,10.00
2019-05-02T23:18:15.026Z,9.67
2019-05-02T23:20:44.523Z,11.03
2019-05-02T23:23:14.011Z,10.67
2019-05-02T23:25:57.100Z,8.10
2019-05-02T23:28:28.252Z,12.77
2019-05-02T23:30:57.809Z,8.53
2019-05-02T23:33:28.945Z,10.30
2019-05-02T23:35:58.444Z,8.83
2019-05-02T23:38:28.167Z,10.23
2019-05-02T23:40:59.254Z,11.47
2019-05-02T23:43:28.752Z,11.57
2019-05-02T23:45:58.243Z,8.87
2019-05-02T23:48:27.728Z,11.00
2019-05-02T23:50:57.221Z,10.17
2019-05-02T23:53:26.718Z,13.70
2019-05-02T23:55:56.307Z,14.13
2019-05-02T23:58:25.825Z,21.90
